Time;durP1;ratioP1;P1;durP2;ratioP2;P2;SDS_P1;SDS_P2;PMS_P1;PMS_P2;Temp;Humidity;BMP_temperature;BMP_pressure;BME280_temperature;BME280_humidity;BME280_pressure;Samples;Min_cycle;Max_cycle;Signal;HPM_P1;HPM_P2
2022/07/26 07:35:57;;;;;;;2.70;1.00;;;;;;;22.23;50.96;100364.16;5085587;27;20476;-72
2022/07/26 07:38:23;;;;;;;2.53;0.70;;;;;;;22.48;50.07;100363.34;5081001;28;20415;-72
2022/07/26 07:40:48;;;;;;;0.85;0.70;;;;;;;22.72;50.05;100371.16;5069177;28;20855;-72
2022/07/26 07:43:13;;;;;;;1.23;0.83;;;;;;;22.70;49.65;100362.38;5077849;28;20758;-72
2022/07/26 07:45:39;;;;;;;3.17;0.80;;;;;;;22.79;49.49;100363.16;5096556;28;20407;-72
2022/07/26 07:48:05;;;;;;;1.20;0.53;;;;;;;22.94;49.23;100362.66;5090328;28;20783;-72
2022/07/26 07:50:31;;;;;;;1.85;0.63;;;;;;;23.04;48.73;100365.06;5102948;28;20427;-72
2022/07/26 07:52:57;;;;;;;3.08;0.60;;;;;;;23.17;48.38;100357.69;5105752;28;20417;-73
2022/07/26 07:55:22;;;;;;;2.10;0.70;;;;;;;23.22;47.88;100368.56;5097510;28;20916;-73
2022/07/26 07:57:47;;;;;;;2.43;0.67;;;;;;;23.30;48.29;100358.63;5108568;28;20386;-72
2022/07/26 08:00:15;;;;;;;2.45;0.60;;;;;;;23.39;47.95;100359.38;5107701;28;20748;-73
2022/07/26 08:02:41;;;;;;;3.50;0.70;;;;;;;23.46;47.43;100355.00;5105860;28;20393;-72
2022/07/26 08:05:08;;;;;;;1.58;0.70;;;;;;;23.57;47.21;100367.31;5082645;28;20980;-72
2022/07/26 08:07:33;;;;;;;0.67;0.47;;;;;;;23.62;46.45;100358.81;5108259;28;20873;-72
2022/07/26 08:09:58;;;;;;;1.42;0.50;;;;;;;23.59;46.35;100372.50;5108343;28;20442;-72
2022/07/26 08:12:24;;;;;;;1.17;0.40;;;;;;;23.54;46.24;100362.44;5107576;28;20442;-72
2022/07/26 08:14:49;;;;;;;3.10;0.40;;;;;;;23.60;46.16;100361.13;5092453;28;20411;-72
2022/07/26 08:17:14;;;;;;;3.63;0.50;;;;;;;23.63;46.40;100370.69;5107892;28;20402;-72
2022/07/26 08:19:39;;;;;;;0.70;0.70;;;;;;;23.50;46.42;100378.09;5088040;28;20911;-72
2022/07/26 08:22:07;;;;;;;0.63;0.30;;;;;;;23.58;46.05;100376.41;5099638;28;20484;-72
2022/07/26 08:24:32;;;;;;;4.80;0.70;;;;;;;23.71;45.87;100370.63;5107315;28;20393;-72
2022/07/26 08:26:57;;;;;;;2.07;0.47;;;;;;;23.72;45.90;100382.50;5099653;28;20472;-72
2022/07/26 08:29:23;;;;;;;1.40;0.40;;;;;;;23.84;45.65;100374.31;5105724;28;20424;-72
2022/07/26 08:31:49;;;;;;;1.40;0.60;;;;;;;24.12;45.13;100382.94;5102493;28;20448;-72
2022/07/26 08:34:16;;;;;;;0.90;0.43;;;;;;;24.06;44.86;100370.41;5091540;28;20452;-73
2022/07/26 08:36:42;;;;;;;0.88;0.40;;;;;;;24.10;45.29;100372.19;5105176;28;20417;-73
2022/07/26 08:39:07;;;;;;;0.80;0.70;;;;;;;24.16;44.92;100370.06;5097144;28;20473;-73
2022/07/26 08:41:32;;;;;;;1.42;0.50;;;;;;;24.22;44.71;100372.28;5106459;28;20485;-73
2022/07/26 08:44:09;;;;;;;1.80;0.50;;;;;;;24.32;44.31;100376.59;5106926;28;20397;-72
2022/07/26 08:46:37;;;;;;;1.52;0.32;;;;;;;24.34;44.07;100377.06;5098169;28;20378;-73
2022/07/26 08:49:05;;;;;;;0.90;0.60;;;;;;;24.48;43.85;100374.00;5072063;28;20504;-73
2022/07/26 08:51:30;;;;;;;1.90;0.50;;;;;;;24.55;43.71;100371.50;5084306;28;20382;-73
2022/07/26 08:53:57;;;;;;;0.65;0.45;;;;;;;24.59;43.25;100384.34;5090672;28;20417;-73
2022/07/26 08:56:23;;;;;;;1.00;0.50;;;;;;;24.73;42.01;100376.53;5063245;28;20409;-74
2022/07/26 08:58:48;;;;;;;0.80;0.50;;;;;;;24.86;42.13;100385.75;5074828;28;20781;-72
2022/07/26 09:01:13;;;;;;;2.47;0.40;;;;;;;24.80;42.19;100385.09;5093708;28;20788;-73
2022/07/26 09:03:40;;;;;;;2.87;1.50;;;;;;;24.74;42.70;100375.41;5090587;28;20386;-73
2022/07/26 09:06:22;;;;;;;0.30;0.30;;;;;;;24.87;42.16;100375.44;5064981;28;20409;-73
2022/07/26 09:08:51;;;;;;;2.40;0.40;;;;;;;25.00;41.75;100383.47;5093559;28;20393;-73
2022/07/26 09:11:23;;;;;;;1.20;0.60;;;;;;;25.14;41.52;100383.16;5085097;28;20430;-73
2022/07/26 09:14:05;;;;;;;0.40;0.40;;;;;;;25.35;41.24;100372.78;5062070;28;20505;-73
2022/07/26 09:16:31;;;;;;;0.50;0.38;;;;;;;25.57;41.20;100379.88;5093494;28;20508;-73
2022/07/26 09:19:20;;;;;;;0.65;0.25;;;;;;;25.63;40.76;100381.25;5068765;28;20403;-73
2022/07/26 09:21:45;;;;;;;0.70;0.50;;;;;;;25.50;40.16;100379.63;5052692;28;20995;-73
2022/07/26 09:24:11;;;;;;;2.53;0.40;;;;;;;25.62;39.63;100379.66;5069857;28;20413;-73
2022/07/26 09:26:37;;;;;;;1.70;0.50;;;;;;;25.72;39.71;100385.53;5069586;28;20398;-73
2022/07/26 09:29:06;;;;;;;0.93;0.30;;;;;;;25.93;39.20;100384.59;5066086;28;20386;-73
2022/07/26 09:31:32;;;;;;;1.10;0.45;;;;;;;26.10;38.53;100379.59;5076328;28;20928;-73
2022/07/26 09:33:58;;;;;;;0.50;0.50;;;;;;;26.19;38.45;100369.19;5083474;28;20422;-73
2022/07/26 09:36:25;;;;;;;0.95;0.47;;;;;;;26.36;38.00;100383.94;5088529;28;20392;-73
2022/07/26 09:38:53;;;;;;;3.20;0.50;;;;;;;26.62;38.43;100384.31;5088733;28;20459;-73
2022/07/26 09:41:25;;;;;;;1.15;0.30;;;;;;;26.81;38.08;100381.69;5092879;28;20401;-73
2022/07/26 09:43:50;;;;;;;1.60;0.40;;;;;;;26.81;37.69;100376.13;5083197;28;20413;-73
2022/07/26 09:46:17;;;;;;;1.20;0.40;;;;;;;26.57;38.24;100371.50;5068288;28;20394;-72
2022/07/26 09:48:43;;;;;;;2.30;0.47;;;;;;;26.33;38.71;100379.09;5084502;28;20465;-73
2022/07/26 09:51:09;;;;;;;0.52;0.40;;;;;;;26.06;38.39;100372.31;5077147;28;20389;-73
2022/07/26 09:53:40;;;;;;;1.20;0.40;;;;;;;26.33;37.60;100379.91;5092718;28;20443;-73
2022/07/26 09:56:07;;;;;;;0.40;0.40;;;;;;;26.51;37.48;100378.44;5092708;28;20397;-73
2022/07/26 09:58:32;;;;;;;0.50;0.40;;;;;;;26.56;37.24;100389.31;5062857;28;20454;-73
2022/07/26 10:00:57;;;;;;;2.50;0.70;;;;;;;26.40;37.29;100387.63;5092436;28;20464;-73
2022/07/26 10:03:23;;;;;;;1.20;0.50;;;;;;;26.45;37.39;100388.19;5083935;28;20390;-73
2022/07/26 10:05:48;;;;;;;0.63;0.20;;;;;;;27.01;37.18;100382.63;5082779;28;20539;-73
2022/07/26 10:08:14;;;;;;;1.10;0.30;;;;;;;27.87;35.49;100381.66;5092571;28;20741;-73
2022/07/26 10:10:46;;;;;;;1.23;0.40;;;;;;;28.24;34.80;100384.91;5091872;28;20398;-73
2022/07/26 10:13:13;;;;;;;0.77;0.38;;;;;;;29.58;32.30;100395.09;5092386;28;20868;-73
2022/07/26 10:15:46;;;;;;;1.15;0.22;;;;;;;30.98;30.20;100391.91;5092236;28;20406;-73
2022/07/26 10:18:36;;;;;;;0.75;0.32;;;;;;;31.66;28.50;100389.38;5082551;28;20500;-74
2022/07/26 10:21:28;;;;;;;1.23;0.30;;;;;;;32.13;27.36;100391.31;5066627;28;20382;-73
2022/07/26 10:23:57;;;;;;;0.80;0.20;;;;;;;32.99;26.58;100396.09;5085372;28;20380;-74
2022/07/26 10:26:35;;;;;;;0.55;0.25;;;;;;;33.28;26.17;100397.78;5078553;28;20397;-73
2022/07/26 10:29:25;;;;;;;0.60;0.38;;;;;;;31.65;28.49;100387.75;5076570;28;20497;-73
2022/07/26 10:31:59;;;;;;;0.80;0.20;;;;;;;33.54;26.02;100393.78;5090799;28;20922;-73
2022/07/26 10:34:37;;;;;;;1.10;0.35;;;;;;;35.25;23.84;100383.59;5077805;28;20788;-75
2022/07/26 10:37:57;;;;;;;2.17;1.17;;;;;;;36.79;22.16;100399.38;5090803;27;20451;-72
2022/07/26 10:40:24;;;;;;;0.60;0.30;;;;;;;37.59;21.21;100401.44;5071171;28;20415;-72
2022/07/26 10:42:49;;;;;;;0.20;0.20;;;;;;;38.27;20.21;100398.97;5084957;28;20514;-72
2022/07/26 10:45:17;;;;;;;0.55;0.38;;;;;;;38.66;19.79;100395.41;5080308;28;20451;-72
2022/07/26 10:48:13;;;;;;;0.70;0.40;;;;;;;38.84;19.72;100404.31;5087663;28;20395;-72
2022/07/26 10:50:40;;;;;;;1.90;0.22;;;;;;;38.83;19.39;100414.84;5061275;28;20457;-72
2022/07/26 10:53:07;;;;;;;0.30;0.30;;;;;;;39.07;19.28;100397.72;5084962;28;20765;-72
2022/07/26 10:55:45;;;;;;;0.93;0.40;;;;;;;39.88;18.57;100398.59;5077563;28;20404;-72
2022/07/26 10:58:11;;;;;;;1.00;0.40;;;;;;;40.23;17.91;100396.81;5059633;28;20846;-72
2022/07/26 11:00:36;;;;;;;0.30;0.30;;;;;;;40.06;17.92;100389.56;5088029;28;20379;-72
2022/07/26 11:03:01;;;;;;;0.63;0.30;;;;;;;40.32;17.85;100402.66;5081653;28;20421;-73
2022/07/26 11:05:30;;;;;;;0.20;0.20;;;;;;;40.51;17.75;100389.53;5072375;28;20499;-73
2022/07/26 11:07:58;;;;;;;0.75;0.40;;;;;;;39.45;18.25;100398.88;5070290;28;21197;-72
2022/07/26 11:10:26;;;;;;;0.30;0.30;;;;;;;39.67;18.56;100393.44;5077954;28;20415;-73
2022/07/26 11:13:07;;;;;;;1.25;0.43;;;;;;;40.28;17.46;100391.38;5071399;28;20888;-72
2022/07/26 11:15:34;;;;;;;2.70;0.40;;;;;;;40.84;17.39;100396.66;5057017;28;20453;-72
2022/07/26 11:18:14;;;;;;;0.90;0.20;;;;;;;40.93;17.38;100393.94;5054569;28;20416;-72
2022/07/26 11:20:40;;;;;;;1.85;0.30;;;;;;;41.35;16.93;100392.59;5070894;28;20419;-72
2022/07/26 11:23:29;;;;;;;0.35;0.20;;;;;;;41.46;16.48;100392.28;5056357;28;20410;-73
2022/07/26 11:26:04;;;;;;;0.50;0.30;;;;;;;41.59;16.35;100375.19;5070512;28;20487;-73
2022/07/26 11:28:43;;;;;;;1.88;0.57;;;;;;;40.70;16.58;100385.75;5073889;28;20388;-74
2022/07/26 11:31:09;;;;;;;0.60;0.50;;;;;;;39.88;17.71;100384.41;5072865;28;20443;-74
2022/07/26 11:33:38;;;;;;;0.68;0.32;;;;;;;39.87;17.69;100382.78;5076252;28;20929;-72
2022/07/26 11:36:04;;;;;;;0.40;0.40;;;;;;;40.44;17.18;100379.19;5081051;28;20419;-72
2022/07/26 11:38:52;;;;;;;1.63;0.50;;;;;;;37.92;19.10;100375.03;5095558;28;20401;-73
2022/07/26 11:41:28;;;;;;;0.70;0.50;;;;;;;37.68;19.97;100374.22;5075389;28;20424;-73
2022/07/26 11:43:55;;;;;;;0.20;0.20;;;;;;;39.38;18.16;100371.47;5081134;28;20920;-73
2022/07/26 11:46:22;;;;;;;0.15;0.15;;;;;;;40.55;16.92;100374.00;5081361;28;20731;-73
2022/07/26 11:48:52;;;;;;;0.47;0.35;;;;;;;39.60;17.30;100376.59;5056417;28;20402;-73
2022/07/26 11:51:20;;;;;;;0.65;0.40;;;;;;;39.59;17.65;100378.63;5070425;28;20399;-72
2022/07/26 11:53:46;;;;;;;0.40;0.30;;;;;;;40.16;16.83;100366.59;5068342;28;20408;-72
2022/07/26 11:56:17;;;;;;;0.27;0.27;;;;;;;40.72;16.68;100366.19;5085360;28;20447;-72
2022/07/26 11:58:45;;;;;;;0.40;0.30;;;;;;;41.55;16.06;100368.81;5079602;28;20782;-72
2022/07/26 12:01:12;;;;;;;1.23;0.27;;;;;;;41.62;15.53;100371.41;5088649;28;20380;-73
2022/07/26 12:03:39;;;;;;;1.90;0.40;;;;;;;41.85;15.65;100374.69;5070935;28;20411;-73
2022/07/26 12:06:08;;;;;;;1.30;0.30;;;;;;;42.37;15.11;100374.00;5072990;28;20406;-73
2022/07/26 12:08:55;;;;;;;0.50;0.35;;;;;;;41.87;15.54;100371.34;5073063;28;20750;-73
2022/07/26 12:11:21;;;;;;;0.22;0.22;;;;;;;41.74;15.56;100364.88;5092934;28;20443;-73
2022/07/26 12:13:48;;;;;;;0.60;0.40;;;;;;;42.19;15.26;100362.47;5081723;28;20472;-73
2022/07/26 12:16:33;;;;;;;2.20;0.30;;;;;;;42.42;15.40;100364.03;5078573;28;20448;-73
2022/07/26 12:18:58;;;;;;;0.30;0.20;;;;;;;42.01;15.24;100361.50;5069603;28;20390;-73
2022/07/26 12:21:37;;;;;;;1.60;0.30;;;;;;;42.52;14.88;100374.22;5089810;28;20823;-73
2022/07/26 12:24:02;;;;;;;0.55;0.40;;;;;;;42.05;14.85;100362.19;5081925;28;20386;-73
2022/07/26 12:26:29;;;;;;;1.20;0.20;;;;;;;41.74;14.84;100365.69;5083525;28;20885;-73
2022/07/26 12:28:56;;;;;;;0.30;0.30;;;;;;;41.46;15.31;100351.66;5093126;28;20390;-73
2022/07/26 12:31:28;;;;;;;0.20;0.20;;;;;;;42.15;15.34;100353.25;5085937;28;20493;-73
2022/07/26 12:33:54;;;;;;;0.20;0.20;;;;;;;42.42;14.85;100350.59;5074934;28;20394;-73
2022/07/26 12:36:20;;;;;;;1.55;0.30;;;;;;;42.55;14.82;100361.13;5083797;28;20421;-73
2022/07/26 12:38:46;;;;;;;1.40;0.35;;;;;;;42.90;14.52;100345.50;5086419;28;20396;-73
2022/07/26 12:41:11;;;;;;;1.30;0.30;;;;;;;43.16;14.60;100348.94;5068606;28;20765;-73
2022/07/26 12:43:40;;;;;;;0.27;0.27;;;;;;;43.06;14.74;100353.03;5074403;28;20404;-73
2022/07/26 12:46:05;;;;;;;1.63;0.50;;;;;;;41.01;15.80;100349.06;5079202;28;20736;-73
2022/07/26 12:48:30;;;;;;;0.60;0.50;;;;;;;39.85;17.00;100342.69;5091705;28;20386;-73
2022/07/26 12:50:56;;;;;;;0.40;0.40;;;;;;;40.89;16.28;100333.56;5081829;28;20401;-73
2022/07/26 12:53:22;;;;;;;0.57;0.30;;;;;;;40.57;16.35;100336.63;5068106;28;20959;-73
2022/07/26 12:55:47;;;;;;;0.43;0.30;;;;;;;39.98;17.28;100332.22;5071978;28;20416;-73
2022/07/26 12:58:12;;;;;;;2.20;0.47;;;;;;;40.71;16.74;100334.13;5077051;28;20398;-73
2022/07/26 13:00:38;;;;;;;1.80;0.40;;;;;;;41.57;15.31;100330.09;5054972;28;20818;-72
2022/07/26 13:03:03;;;;;;;1.10;0.30;;;;;;;42.36;15.12;100337.44;5051390;28;20435;-75
2022/07/26 13:05:30;;;;;;;2.00;0.30;;;;;;;42.76;14.38;100332.59;5057020;28;20449;-75
2022/07/26 13:07:55;;;;;;;0.80;0.30;;;;;;;41.98;14.43;100320.53;5090428;28;20383;-73
2022/07/26 13:10:20;;;;;;;0.80;0.40;;;;;;;39.81;16.37;100320.13;5073451;28;20391;-73
2022/07/26 13:12:46;;;;;;;2.20;0.30;;;;;;;38.04;18.18;100322.66;5072450;28;20449;-74
2022/07/26 13:15:11;;;;;;;0.43;0.43;;;;;;;36.90;19.50;100329.44;5064471;28;20415;-73
2022/07/26 13:17:37;;;;;;;0.50;0.50;;;;;;;37.92;18.75;100322.06;5072594;28;20475;-73
2022/07/26 13:20:03;;;;;;;0.50;0.50;;;;;;;39.54;16.96;100313.16;5068030;28;20411;-73
2022/07/26 13:22:28;;;;;;;1.52;0.30;;;;;;;39.88;16.81;100317.06;5074567;28;20392;-72
2022/07/26 13:24:53;;;;;;;0.28;0.28;;;;;;;38.85;17.48;100315.25;5074244;28;20407;-73
2022/07/26 13:27:19;;;;;;;0.80;0.40;;;;;;;38.30;18.33;100322.50;5068606;28;21411;-73
2022/07/26 13:29:44;;;;;;;1.40;0.40;;;;;;;38.83;18.02;100312.84;5066962;28;20406;-72
2022/07/26 13:32:09;;;;;;;2.40;0.40;;;;;;;39.71;17.27;100318.38;5062984;28;20426;-73
2022/07/26 13:34:34;;;;;;;1.10;0.30;;;;;;;40.01;16.81;100313.50;5070598;28;20771;-72
2022/07/26 13:37:00;;;;;;;1.73;0.20;;;;;;;40.26;16.81;100310.75;5074622;28;20427;-73
2022/07/26 13:39:26;;;;;;;0.20;0.20;;;;;;;40.28;16.46;100300.53;5079111;28;20483;-73
2022/07/26 13:41:52;;;;;;;0.63;0.40;;;;;;;40.67;16.44;100307.09;5077021;28;20403;-73
2022/07/26 13:44:17;;;;;;;2.23;0.40;;;;;;;40.37;16.14;100291.34;5070071;28;20418;-73
2022/07/26 13:46:43;;;;;;;0.53;0.30;;;;;;;40.16;16.58;100292.00;5082386;28;20408;-73
2022/07/26 13:49:09;;;;;;;1.10;0.30;;;;;;;39.49;16.65;100288.19;5069337;28;20434;-72
2022/07/26 13:54:22;;;;;;;0.40;0.20;;;;;;;36.23;19.48;100285.16;5078690;28;20494;-73
2022/07/26 13:56:48;;;;;;;0.52;0.30;;;;;;;35.37;20.48;100296.53;5070931;28;20908;-73
2022/07/26 13:59:13;;;;;;;0.67;0.33;;;;;;;34.83;21.52;100281.28;5061939;28;20401;-73
2022/07/26 14:01:39;;;;;;;2.45;0.50;;;;;;;34.56;21.51;100293.50;5085406;28;20386;-73
2022/07/26 14:04:06;;;;;;;3.33;0.35;;;;;;;34.40;22.39;100288.38;5077269;28;20421;-73
2022/07/26 14:06:33;;;;;;;0.45;0.35;;;;;;;34.74;22.03;100278.16;5070722;28;20478;-74
2022/07/26 14:08:58;;;;;;;0.90;0.30;;;;;;;35.69;21.29;100279.38;5087297;28;20415;-74
2022/07/26 14:11:25;;;;;;;0.77;0.40;;;;;;;36.82;20.09;100285.56;5079739;28;20416;-73
2022/07/26 14:13:51;;;;;;;1.20;0.32;;;;;;;36.94;19.68;100290.63;5067366;28;20409;-73
2022/07/26 14:16:16;;;;;;;0.32;0.20;;;;;;;35.75;20.49;100297.41;5074829;28;20766;-73
2022/07/26 14:18:41;;;;;;;1.70;0.30;;;;;;;34.72;21.40;100288.19;5072815;28;20477;-72
2022/07/26 14:21:07;;;;;;;2.70;0.40;;;;;;;34.33;21.81;100283.56;5078510;28;20771;-75
2022/07/26 14:23:32;;;;;;;0.20;0.20;;;;;;;34.10;21.67;100280.44;5072951;28;20437;-73
2022/07/26 14:25:57;;;;;;;1.20;0.40;;;;;;;34.45;21.83;100282.28;5073331;28;20400;-73
2022/07/26 14:28:23;;;;;;;0.77;0.43;;;;;;;34.50;21.74;100279.06;5077298;28;20398;-73
2022/07/26 14:30:48;;;;;;;1.00;0.30;;;;;;;34.56;21.70;100287.88;5081820;28;20386;-73
2022/07/26 14:33:14;;;;;;;1.20;0.40;;;;;;;34.55;21.57;100273.00;5083976;28;21471;-74
2022/07/26 14:35:40;;;;;;;1.00;0.40;;;;;;;34.95;21.39;100279.97;5059908;28;20419;-75
2022/07/26 14:38:06;;;;;;;0.60;0.30;;;;;;;35.22;21.24;100275.38;5071043;28;20445;-73
2022/07/26 14:40:31;;;;;;;1.35;0.40;;;;;;;34.92;21.38;100278.81;5050810;28;20426;-74
2022/07/26 14:42:56;;;;;;;1.80;0.30;;;;;;;35.05;21.47;100272.66;5067997;28;20401;-73
2022/07/26 14:45:22;;;;;;;1.40;0.50;;;;;;;35.05;21.29;100279.09;5044453;28;20401;-73
2022/07/26 14:47:47;;;;;;;1.33;0.40;;;;;;;35.05;20.42;100270.66;5081275;28;20449;-73
2022/07/26 14:50:14;;;;;;;2.05;0.45;;;;;;;35.04;20.48;100271.84;5090793;28;20394;-73
2022/07/26 14:52:44;;;;;;;1.40;0.28;;;;;;;34.94;20.13;100272.78;5084360;28;20888;-73
2022/07/26 14:55:11;;;;;;;0.25;0.25;;;;;;;35.07;20.54;100273.88;5090890;28;20390;-73
2022/07/26 14:57:37;;;;;;;0.40;0.30;;;;;;;35.28;20.27;100275.69;5084645;28;20479;-73
2022/07/26 15:00:04;;;;;;;1.23;0.52;;;;;;;35.26;20.23;100269.69;5075875;28;20868;-73
2022/07/26 15:02:30;;;;;;;0.20;0.20;;;;;;;35.25;20.56;100270.91;5090696;28;20850;-73
2022/07/26 15:04:55;;;;;;;1.00;0.33;;;;;;;35.30;20.55;100265.63;5090804;28;20388;-73
2022/07/26 15:07:21;;;;;;;3.20;0.52;;;;;;;35.38;20.55;100267.16;5088166;28;20430;-72
2022/07/26 15:09:46;;;;;;;1.90;0.30;;;;;;;35.29;20.48;100272.50;5074975;28;20469;-73
2022/07/26 15:12:11;;;;;;;1.77;0.38;;;;;;;35.28;20.27;100253.97;5091030;28;20630;-73
2022/07/26 15:14:36;;;;;;;1.80;0.60;;;;;;;35.40;19.80;100259.06;5077836;28;20378;-73
2022/07/26 15:17:02;;;;;;;0.53;0.20;;;;;;;35.34;20.47;100259.94;5090717;28;20433;-73
2022/07/26 15:19:27;;;;;;;0.73;0.37;;;;;;;35.20;20.39;100263.72;5073731;28;20458;-73
2022/07/26 15:21:53;;;;;;;2.00;0.50;;;;;;;34.29;21.16;100253.84;5090743;28;20431;-73
2022/07/26 15:24:19;;;;;;;0.90;0.30;;;;;;;33.53;22.34;100262.09;5094241;28;20469;-73
2022/07/26 15:26:44;;;;;;;0.90;0.33;;;;;;;32.99;23.19;100258.53;5073205;28;21006;-73
2022/07/26 15:29:09;;;;;;;1.37;0.53;;;;;;;33.26;22.93;100253.34;5079378;28;20400;-73
2022/07/26 15:31:35;;;;;;;0.50;0.40;;;;;;;33.37;22.95;100249.31;5076386;28;20390;-73
2022/07/26 15:34:00;;;;;;;1.30;0.40;;;;;;;33.76;22.18;100242.81;5094344;28;20405;-72
2022/07/26 15:36:25;;;;;;;0.40;0.40;;;;;;;33.83;22.41;100242.78;5094069;28;20679;-73
2022/07/26 15:38:50;;;;;;;2.50;1.53;;;;;;;34.06;22.12;100240.28;5081596;28;20408;-73
2022/07/26 15:41:16;;;;;;;0.40;0.30;;;;;;;34.05;22.42;100240.69;5094096;28;20486;-73
2022/07/26 15:43:41;;;;;;;2.40;0.65;;;;;;;33.48;22.66;100240.84;5086077;28;20398;-72
2022/07/26 15:46:06;;;;;;;2.10;0.30;;;;;;;32.78;23.08;100238.88;5094291;28;20814;-73
2022/07/26 15:48:32;;;;;;;0.50;0.40;;;;;;;32.44;23.76;100252.41;5075733;28;20408;-72
2022/07/26 15:50:58;;;;;;;0.35;0.35;;;;;;;32.08;23.97;100245.91;5091751;28;20392;-73
2022/07/26 15:53:23;;;;;;;0.73;0.40;;;;;;;31.92;24.58;100241.78;5088853;28;20386;-73
2022/07/26 15:55:49;;;;;;;1.25;0.25;;;;;;;32.07;24.37;100244.31;5093932;28;20402;-73
2022/07/26 15:58:14;;;;;;;0.30;0.30;;;;;;;32.49;23.84;100240.00;5064594;28;20439;-72
2022/07/26 16:00:41;;;;;;;0.55;0.32;;;;;;;32.40;23.85;100241.19;5078843;28;20376;-73
2022/07/26 16:03:06;;;;;;;1.45;0.40;;;;;;;32.09;24.38;100239.09;5093708;28;20865;-72
2022/07/26 16:05:33;;;;;;;1.00;0.30;;;;;;;32.12;24.49;100243.09;5071459;28;20402;-73
2022/07/26 16:07:59;;;;;;;1.55;0.30;;;;;;;32.38;24.62;100242.78;5093640;28;20921;-72
2022/07/26 16:10:24;;;;;;;3.70;0.50;;;;;;;31.97;25.03;100238.63;5074756;28;20400;-73
2022/07/26 16:12:49;;;;;;;3.13;0.37;;;;;;;31.72;25.82;100232.88;5090100;28;20394;-72
2022/07/26 16:15:14;;;;;;;1.80;0.33;;;;;;;31.64;25.81;100231.25;5064003;28;20417;-72
2022/07/26 16:17:40;;;;;;;1.60;0.30;;;;;;;31.72;25.79;100230.91;5090897;28;20421;-72
2022/07/26 16:20:06;;;;;;;1.58;0.30;;;;;;;31.72;25.77;100225.28;5093053;28;20398;-72
2022/07/26 16:22:31;;;;;;;0.82;0.28;;;;;;;31.79;25.73;100232.94;5061979;28;20875;-73
2022/07/26 16:24:57;;;;;;;1.43;0.50;;;;;;;31.83;25.55;100231.75;5085385;28;20503;-73
2022/07/26 16:27:22;;;;;;;1.00;0.60;;;;;;;31.94;25.10;100222.59;5084909;28;20435;-72
2022/07/26 16:29:47;;;;;;;1.50;0.53;;;;;;;32.02;25.36;100227.00;5093278;28;20455;-73
2022/07/26 16:32:13;;;;;;;3.30;0.60;;;;;;;32.09;25.35;100227.06;5085693;28;20410;-73
2022/07/26 16:34:38;;;;;;;1.80;0.40;;;;;;;31.93;25.50;100218.19;5075808;28;20417;-73
2022/07/26 16:37:04;;;;;;;0.80;0.30;;;;;;;31.71;25.77;100218.06;5080379;28;20421;-74
2022/07/26 16:39:29;;;;;;;0.40;0.30;;;;;;;31.27;25.93;100215.41;5061797;28;20464;-75
2022/07/26 16:41:54;;;;;;;0.97;0.50;;;;;;;31.17;26.34;100218.13;5074787;28;20404;-74
2022/07/26 16:44:21;;;;;;;1.17;0.30;;;;;;;31.16;25.95;100217.31;5077866;28;20423;-75
2022/07/26 16:46:46;;;;;;;4.20;0.70;;;;;;;31.12;26.41;100221.31;5062868;28;20439;-73
2022/07/26 16:49:12;;;;;;;1.20;0.40;;;;;;;31.05;26.44;100219.25;5063064;28;20435;-73
2022/07/26 16:51:37;;;;;;;0.60;0.43;;;;;;;30.86;26.45;100219.44;5064036;28;20423;-73
2022/07/26 16:54:02;;;;;;;0.82;0.47;;;;;;;30.65;26.53;100219.28;5065642;28;20398;-73
2022/07/26 16:56:28;;;;;;;2.40;0.40;;;;;;;30.64;26.56;100215.69;5053526;28;20906;-72
2022/07/26 16:58:53;;;;;;;1.17;0.40;;;;;;;30.62;26.61;100209.69;5064798;28;20759;-73
2022/07/26 17:01:18;;;;;;;0.53;0.40;;;;;;;30.60;26.75;100205.63;5067960;28;20449;-72
2022/07/26 17:03:44;;;;;;;1.33;0.50;;;;;;;30.54;27.04;100216.38;5076827;28;20382;-73
2022/07/26 17:06:09;;;;;;;0.40;0.30;;;;;;;30.58;27.07;100210.81;5065097;28;20392;-73
2022/07/26 17:08:34;;;;;;;1.47;0.50;;;;;;;30.47;26.99;100212.69;5075287;28;20410;-73
2022/07/26 17:11:00;;;;;;;2.43;0.57;;;;;;;30.36;27.36;100210.56;5072554;28;20418;-73
2022/07/26 17:13:25;;;;;;;2.03;0.60;;;;;;;30.33;27.62;100210.56;5068447;28;20424;-73
2022/07/26 17:15:51;;;;;;;1.67;0.60;;;;;;;30.27;27.71;100204.50;5071396;28;20951;-73
2022/07/26 17:18:16;;;;;;;1.17;0.60;;;;;;;30.21;27.92;100208.81;5073119;28;20402;-73
2022/07/26 17:20:42;;;;;;;2.00;1.00;;;;;;;30.07;28.23;100208.66;5073150;28;20417;-73
2022/07/26 17:23:07;;;;;;;0.70;0.43;;;;;;;29.90;28.00;100206.47;5080646;28;20462;-73
2022/07/26 17:25:32;;;;;;;1.90;0.47;;;;;;;29.77;28.38;100207.88;5075564;28;20409;-73
2022/07/26 17:27:58;;;;;;;1.48;0.50;;;;;;;29.58;29.01;100211.59;5084154;28;20498;-72
2022/07/26 17:30:23;;;;;;;2.20;0.60;;;;;;;29.24;29.52;100204.31;5072569;28;21137;-73
2022/07/26 17:32:48;;;;;;;1.20;0.50;;;;;;;29.13;30.23;100206.94;5078505;28;20399;-72
2022/07/26 17:35:14;;;;;;;2.83;0.60;;;;;;;29.10;30.32;100202.13;5066747;28;20402;-73
2022/07/26 17:37:39;;;;;;;0.50;0.43;;;;;;;29.13;30.42;100200.56;5048738;28;20423;-72
2022/07/26 17:40:06;;;;;;;1.30;0.40;;;;;;;29.06;30.19;100209.63;5073015;28;20471;-72
2022/07/26 17:42:31;;;;;;;1.58;0.43;;;;;;;29.07;30.42;100205.66;5062971;28;20768;-72
2022/07/26 17:44:57;;;;;;;2.77;0.60;;;;;;;29.13;30.53;100206.13;5064202;28;20408;-74
2022/07/26 17:47:22;;;;;;;1.17;0.60;;;;;;;29.19;30.12;100199.84;5073114;28;20995;-74
2022/07/26 17:49:47;;;;;;;2.40;0.63;;;;;;;29.20;30.42;100204.28;5067342;28;20490;-74
2022/07/26 17:52:12;;;;;;;0.50;0.50;;;;;;;29.28;30.19;100207.97;5068131;28;20490;-74
2022/07/26 17:54:38;;;;;;;2.28;0.50;;;;;;;29.31;29.97;100204.44;5069566;28;20408;-74
2022/07/26 17:57:05;;;;;;;2.63;0.50;;;;;;;29.17;30.06;100199.44;5074057;28;20510;-74
2022/07/26 17:59:31;;;;;;;3.00;0.75;;;;;;;29.07;30.34;100196.47;5070499;28;20497;-74
2022/07/26 18:01:56;;;;;;;2.80;0.50;;;;;;;29.05;30.83;100205.22;5070284;28;20403;-73
2022/07/26 18:04:22;;;;;;;0.70;0.43;;;;;;;29.09;30.86;100197.72;5072181;28;20414;-74
2022/07/26 18:06:47;;;;;;;1.87;0.47;;;;;;;29.00;30.78;100201.94;5068973;28;20431;-73
2022/07/26 18:09:12;;;;;;;1.55;0.60;;;;;;;28.89;31.50;100198.97;5068049;28;20455;-74
2022/07/26 18:11:39;;;;;;;1.50;0.50;;;;;;;28.80;31.25;100198.44;5062446;28;20770;-74
2022/07/26 18:14:08;;;;;;;2.22;0.70;;;;;;;28.70;31.58;100201.84;5066161;28;20410;-74
2022/07/26 18:16:35;;;;;;;4.03;0.65;;;;;;;28.60;32.07;100206.03;5058651;28;20419;-74
2022/07/26 18:19:00;;;;;;;1.55;0.70;;;;;;;28.61;32.08;100184.53;5069221;28;20395;-74
2022/07/26 18:21:26;;;;;;;1.50;0.60;;;;;;;28.61;32.27;100202.09;5060417;28;20861;-74
2022/07/26 18:23:52;;;;;;;2.40;0.52;;;;;;;28.65;32.24;100199.34;5068713;28;20411;-74
2022/07/26 18:26:17;;;;;;;1.48;0.40;;;;;;;28.59;32.25;100206.41;5069069;28;20398;-73
2022/07/26 18:28:42;;;;;;;1.05;0.60;;;;;;;28.53;32.43;100202.31;5069737;28;20403;-74
2022/07/26 18:31:07;;;;;;;0.90;0.52;;;;;;;28.47;32.31;100198.22;5077257;28;20738;-74
2022/07/26 18:33:33;;;;;;;12.57;0.90;;;;;;;28.39;32.58;100202.09;5067277;28;20415;-75
2022/07/26 18:35:59;;;;;;;1.50;0.50;;;;;;;28.34;32.72;100205.97;5076176;28;20821;-74
2022/07/26 18:38:25;;;;;;;0.55;0.55;;;;;;;28.30;32.96;100203.13;5063458;28;20403;-74
2022/07/26 18:40:50;;;;;;;0.50;0.40;;;;;;;28.24;33.38;100199.03;5056607;28;20395;-73
2022/07/26 18:43:16;;;;;;;0.50;0.50;;;;;;;28.15;33.37;100204.03;5068014;28;20463;-74
2022/07/26 18:45:41;;;;;;;2.17;0.60;;;;;;;28.08;33.25;100209.47;5082547;28;20437;-74
2022/07/26 18:48:06;;;;;;;1.60;0.50;;;;;;;28.00;33.48;100202.09;5067183;28;20492;-75
2022/07/26 18:50:32;;;;;;;0.70;0.47;;;;;;;27.93;33.46;100201.13;5069061;28;20402;-74
2022/07/26 18:52:58;;;;;;;0.95;0.60;;;;;;;27.82;33.68;100198.16;5060553;28;20415;-74
2022/07/26 18:55:23;;;;;;;1.40;0.60;;;;;;;27.80;33.77;100201.28;5079278;28;20391;-74
2022/07/26 18:57:49;;;;;;;2.00;0.60;;;;;;;27.74;33.94;100201.94;5071333;28;20470;-74
2022/07/26 19:00:17;;;;;;;3.10;0.67;;;;;;;27.70;33.82;100213.00;5034337;28;20410;-75
2022/07/26 19:02:43;;;;;;;1.38;0.77;;;;;;;27.62;34.14;100216.81;5085629;28;20405;-74